DGLMT EDRY-EDFM
Flight info
| Callsign | DGLMT |
|---|---|
| Flight time | 0h 5m |
| Altitude | |
| Route | |
| Aircraft | DA42 |
Departure
| Time | 2026-05-08 20:17 |
|---|---|
| Airport | Speyer Airfield (EDRY) |
Arrival
| Time | 2026-05-08 20:23 |
|---|---|
| Airport | Mannheim-City Airport (EDFM) |
| Time | Latitude | Longitude | Altitude | Speed | Heading |
|---|---|---|---|---|---|
| 2026-05-08 20:17 | 49.36540 | 8.49559 | 1739 ft | 140 kts | 27° |
| 2026-05-08 20:17 | 49.37473 | 8.49953 | 1810 ft | 140 kts | 12° |
| 2026-05-08 20:17 | 49.38468 | 8.49981 | 1764 ft | 147 kts | 360° |
| 2026-05-08 20:18 | 49.39494 | 8.49819 | 1698 ft | 147 kts | 0° |
| 2026-05-08 20:18 | 49.40485 | 8.49870 | 1714 ft | 138 kts | 14° |
| 2026-05-08 20:18 | 49.41392 | 8.50238 | 1681 ft | 136 kts | 22° |
| 2026-05-08 20:18 | 49.42303 | 8.50378 | 1805 ft | 131 kts | 339° |
| 2026-05-08 20:19 | 49.42689 | 8.49141 | 1796 ft | 139 kts | 260° |
| 2026-05-08 20:19 | 49.42389 | 8.47663 | 1649 ft | 151 kts | 249° |
| 2026-05-08 20:19 | 49.42060 | 8.46114 | 1593 ft | 149 kts | 255° |
| 2026-05-08 20:19 | 49.42073 | 8.44625 | 1782 ft | 132 kts | 299° |
| 2026-05-08 20:20 | 49.42728 | 8.43826 | 1850 ft | 125 kts | 350° |
| 2026-05-08 20:20 | 49.43606 | 8.43686 | 1808 ft | 126 kts | 5° |
| 2026-05-08 20:20 | 49.44484 | 8.43749 | 1895 ft | 124 kts | 11° |
| 2026-05-08 20:20 | 49.45318 | 8.43972 | 2049 ft | 120 kts | 17° |
| 2026-05-08 20:21 | 49.46142 | 8.44332 | 1803 ft | 120 kts | 24° |
| 2026-05-08 20:21 | 49.46836 | 8.44829 | 1619 ft | 103 kts | 41° |
| 2026-05-08 20:21 | 49.47227 | 8.45642 | 1457 ft | 89 kts | 69° |
| 2026-05-08 20:21 | 49.47375 | 8.46613 | 1176 ft | 96 kts | 85° |
| 2026-05-08 20:22 | 49.47383 | 8.47658 | 944 ft | 99 kts | 90° |
| 2026-05-08 20:22 | 49.47357 | 8.48714 | 745 ft | 99 kts | 90° |
| 2026-05-08 20:22 | 49.47328 | 8.49734 | 537 ft | 85 kts | 90° |
| 2026-05-08 20:22 | 49.47307 | 8.50557 | 339 ft | 75 kts | 89° |
| 2026-05-08 20:23 | 49.47280 | 8.51308 | 309 ft | 58 kts | 89° |
| 2026-05-08 20:23 | 49.47262 | 8.51782 | 308 ft | 35 kts | 91° |
| 2026-05-08 20:23 | 49.47251 | 8.52077 | 311 ft | 21 kts | 89° |
| 2026-05-08 20:23 | 49.47296 | 8.52151 | 311 ft | 5 kts | 4° |
| 2026-05-08 20:24 | 49.47321 | 8.52154 | 312 ft | 3 kts | 358° |
| 2026-05-08 20:24 | 49.47348 | 8.52155 | 313 ft | 10 kts | 1° |
| 2026-05-08 20:24 | 49.47436 | 8.52163 | 313 ft | 8 kts | 1° |
| 2026-05-08 20:24 | 49.47519 | 8.52171 | 313 ft | 14 kts | 5° |
| 2026-05-08 20:25 | 49.47579 | 8.52174 | 313 ft | 4 kts | 323° |
| 2026-05-08 20:25 | 49.47583 | 8.52130 | 313 ft | 5 kts | 279° |
| 2026-05-08 20:25 | 49.47561 | 8.52111 | 312 ft | 4 kts | 183° |
| 2026-05-08 20:25 | 49.47560 | 8.52111 | 312 ft | 0 kts | 179° |